Time;durP1;ratioP1;P1;durP2;ratioP2;P2;SDS_P1;SDS_P2;PMS_P1;PMS_P2;Temp;Humidity;BMP_temperature;BMP_pressure;BME280_temperature;BME280_humidity;BME280_pressure;Samples;Min_cycle;Max_cycle;Signal;HPM_P1;HPM_P2
2022/06/21 00:02:25;;;;;;;20.20;10.02;;;;;;;17.97;73.38;94510.69;5072267;28;20238;-80
2022/06/21 00:04:53;;;;;;;24.92;9.98;;;;;;;17.99;74.08;94529.84;5072259;28;20173;-80
2022/06/21 00:07:23;;;;;;;33.13;14.77;;;;;;;18.04;74.04;94527.19;5071897;28;20175;-80
2022/06/21 00:09:49;;;;;;;20.15;6.78;;;;;;;18.07;73.86;94529.34;5072084;28;20206;-80
2022/06/21 00:12:14;;;;;;;42.83;23.60;;;;;;;17.83;74.32;94497.06;5071805;28;20340;-80
2022/06/21 00:14:41;;;;;;;22.42;11.10;;;;;;;17.82;74.47;94511.44;5072154;28;20677;-79
2022/06/21 00:17:16;;;;;;;17.98;10.10;;;;;;;17.97;74.68;94529.31;5072046;28;20186;-80
2022/06/21 00:19:43;;;;;;;27.33;14.93;;;;;;;17.98;74.58;94530.94;5070970;28;20546;-79
2022/06/21 00:22:14;;;;;;;26.73;14.60;;;;;;;17.97;74.58;94532.78;5070668;28;20664;-79
2022/06/21 00:24:40;;;;;;;37.20;15.55;;;;;;;18.01;74.46;94527.72;5072185;28;20250;-80
2022/06/21 00:27:14;;;;;;;12.00;7.65;;;;;;;17.97;74.62;94529.31;5072233;28;20667;-79
2022/06/21 00:29:39;;;;;;;34.78;18.17;;;;;;;17.90;75.09;94520.78;5068834;28;20194;-79
2022/06/21 00:32:06;;;;;;;28.38;16.80;;;;;;;17.89;75.07;94513.88;5064763;28;20534;-79
2022/06/21 00:34:31;;;;;;;12.43;8.70;;;;;;;17.87;75.17;94513.31;5076239;28;20209;-79
2022/06/21 00:37:00;;;;;;;14.82;7.32;;;;;;;17.80;75.49;94528.75;5068893;28;20265;-81
2022/06/21 00:39:25;;;;;;;30.95;16.17;;;;;;;17.73;75.94;94525.56;5067416;28;20162;-81
2022/06/21 00:41:57;;;;;;;19.30;9.02;;;;;;;17.64;75.48;94496.75;5053387;28;20721;-81
2022/06/21 00:44:31;;;;;;;25.55;11.15;;;;;;;17.71;75.50;94526.63;5067892;28;20178;-81
2022/06/21 00:47:18;;;;;;;28.10;12.07;;;;;;;17.68;75.64;94527.13;5066285;28;20174;-81
2022/06/21 00:50:15;;;;;;;47.95;23.45;;;;;;;17.64;75.93;94528.72;5057438;28;20278;-81
2022/06/21 00:52:59;;;;;;;49.35;20.13;;;;;;;17.62;75.31;94530.06;5066752;28;20217;-80
2022/06/21 00:55:49;;;;;;;36.15;15.45;;;;;;;17.57;74.36;94517.47;5069373;28;20167;-81
2022/06/21 00:58:16;;;;;;;30.33;14.45;;;;;;;17.58;75.16;94524.41;5069745;28;20174;-81
2022/06/21 01:01:03;;;;;;;25.67;12.60;;;;;;;17.52;75.24;94528.13;5069378;28;20643;-81
2022/06/21 01:03:36;;;;;;;32.15;14.55;;;;;;;17.53;75.83;94529.72;5074854;28;20162;-81
2022/06/21 01:06:25;;;;;;;22.58;10.02;;;;;;;17.52;75.12;94517.47;5055493;28;20205;-81
2022/06/21 01:08:58;;;;;;;12.82;7.15;;;;;;;17.52;74.86;94525.47;5049862;28;20218;-81
2022/06/21 01:11:32;;;;;;;22.00;11.95;;;;;;;17.45;75.27;94503.63;5055765;28;20155;-81
2022/06/21 01:14:00;;;;;;;17.80;8.45;;;;;;;17.49;74.83;94504.69;5055790;28;20532;-81
2022/06/21 01:16:28;;;;;;;14.35;7.25;;;;;;;17.47;74.78;94509.47;5058178;28;20175;-81
2022/06/21 01:18:53;;;;;;;19.13;8.00;;;;;;;17.56;74.70;94523.06;5068846;28;20214;-81
2022/06/21 01:21:21;;;;;;;12.68;6.82;;;;;;;17.53;75.31;94524.41;5079985;28;20599;-81
2022/06/21 01:24:17;;;;;;;17.40;7.70;;;;;;;17.53;75.27;94527.06;5040851;28;20174;-81
2022/06/21 01:26:53;;;;;;;13.55;7.53;;;;;;;17.57;75.09;94530.78;5035384;28;20164;-81
2022/06/21 01:29:23;;;;;;;16.73;6.50;;;;;;;17.43;74.78;94500.41;5035032;28;20274;-81
2022/06/21 01:31:49;;;;;;;11.90;6.47;;;;;;;17.41;74.80;94496.41;5034875;28;20172;-81
2022/06/21 01:34:20;;;;;;;12.98;6.30;;;;;;;17.59;74.79;94531.34;5034456;28;20715;-81
2022/06/21 01:36:50;;;;;;;7.28;4.78;;;;;;;17.18;74.65;94471.88;5034413;28;20160;-81
2022/06/21 01:39:25;;;;;;;9.25;5.03;;;;;;;17.51;74.63;94515.88;5034339;28;20190;-81
2022/06/21 01:42:03;;;;;;;8.20;4.97;;;;;;;17.51;74.77;94523.06;5033975;28;20170;-81
2022/06/21 01:44:34;;;;;;;9.85;5.43;;;;;;;17.47;75.03;94532.66;5037537;28;20657;-81
2022/06/21 01:47:02;;;;;;;12.82;6.07;;;;;;;16.89;75.59;94449.41;5054059;28;20169;-81
2022/06/21 01:49:29;;;;;;;8.45;5.60;;;;;;;17.37;75.94;94533.41;5062965;28;20190;-81
2022/06/21 01:51:58;;;;;;;9.27;4.97;;;;;;;17.40;75.88;94534.72;5059421;28;20707;-81
2022/06/21 01:54:30;;;;;;;9.52;5.05;;;;;;;17.20;75.75;94511.53;5074263;28;20241;-81
2022/06/21 01:56:55;;;;;;;8.45;5.00;;;;;;;17.16;75.58;94508.56;5073905;28;20155;-81
2022/06/21 01:59:29;;;;;;;10.40;5.28;;;;;;;17.06;76.04;94503.19;5074471;28;20155;-81
2022/06/21 02:01:58;;;;;;;6.43;4.20;;;;;;;17.25;76.22;94543.44;5073954;28;20296;-81
2022/06/21 02:04:29;;;;;;;9.13;4.38;;;;;;;17.01;76.14;94497.88;5073859;28;20173;-81
2022/06/21 02:07:01;;;;;;;8.00;4.50;;;;;;;17.26;76.22;94539.75;5074005;28;20170;-81
2022/06/21 02:09:36;;;;;;;6.18;3.83;;;;;;;17.21;76.24;94537.06;5066232;28;20206;-81
2022/06/21 02:12:09;;;;;;;6.65;3.55;;;;;;;16.84;76.30;94479.44;5035641;28;20189;-81
2022/06/21 02:14:38;;;;;;;5.47;4.20;;;;;;;16.74;76.65;94479.38;5062191;28;20179;-81
2022/06/21 02:17:32;;;;;;;8.85;4.82;;;;;;;16.90;76.92;94520.94;5061001;28;20260;-81
2022/06/21 02:20:01;;;;;;;7.93;4.97;;;;;;;17.02;77.16;94544.69;5072931;28;20162;-81
2022/06/21 02:22:30;;;;;;;8.30;4.68;;;;;;;17.04;77.15;94533.78;5073454;28;20190;-81
2022/06/21 02:24:56;;;;;;;16.05;5.93;;;;;;;16.75;76.80;94486.31;5073465;28;20154;-81
2022/06/21 02:27:27;;;;;;;10.05;5.28;;;;;;;17.07;77.31;94527.94;5072926;28;20265;-81
2022/06/21 02:29:56;;;;;;;9.25;4.75;;;;;;;17.05;77.32;94525.53;5072898;28;20186;-81
2022/06/21 02:32:28;;;;;;;13.57;5.80;;;;;;;16.91;77.15;94511.13;5052965;28;20215;-81
2022/06/21 02:34:59;;;;;;;13.43;5.40;;;;;;;16.65;77.71;94477.47;5068158;28;20554;-81
2022/06/21 02:37:28;;;;;;;8.00;4.93;;;;;;;16.75;78.04;94499.59;5073757;28;20642;-81
2022/06/21 02:39:55;;;;;;;10.50;5.07;;;;;;;16.92;78.05;94521.50;5073680;28;20237;-81
2022/06/21 02:42:26;;;;;;;12.30;5.50;;;;;;;16.90;78.36;94523.59;5073646;28;20174;-81
2022/06/21 02:44:55;;;;;;;9.80;5.85;;;;;;;16.93;78.45;94527.63;5055298;28;20613;-81
2022/06/21 02:47:26;;;;;;;9.18;4.97;;;;;;;16.73;77.76;94487.63;5073340;28;20182;-81
2022/06/21 02:49:57;;;;;;;10.02;4.85;;;;;;;16.96;77.60;94514.59;5073603;28;20256;-81
2022/06/21 02:52:30;;;;;;;8.27;4.05;;;;;;;16.94;77.78;94518.59;5073184;28;20202;-81
2022/06/21 02:55:26;;;;;;;6.95;4.25;;;;;;;16.87;78.70;94521.44;5073271;28;20194;-81
2022/06/21 02:58:03;;;;;;;5.88;4.63;;;;;;;16.67;78.64;94478.81;5073250;28;20225;-81
2022/06/21 03:00:29;;;;;;;7.40;4.32;;;;;;;16.67;78.23;94470.06;5072873;28;20162;-81
2022/06/21 03:02:58;;;;;;;10.52;4.40;;;;;;;16.89;78.13;94507.91;5073139;28;20553;-80
2022/06/21 03:05:26;;;;;;;6.93;4.63;;;;;;;16.91;77.84;94501.28;5072183;28;20223;-81
2022/06/21 03:07:57;;;;;;;8.75;4.60;;;;;;;16.52;78.31;94452.09;5072143;28;20185;-81
2022/06/21 03:10:46;;;;;;;7.85;4.97;;;;;;;16.95;78.71;94512.22;5070173;28;20190;-83
2022/06/21 03:13:11;;;;;;;7.78;4.93;;;;;;;16.94;78.52;94508.75;5052813;28;20163;-82
2022/06/21 03:15:38;;;;;;;17.08;6.10;;;;;;;16.61;78.53;94461.22;5052501;28;20594;-82
2022/06/21 03:18:08;;;;;;;12.63;7.20;;;;;;;16.87;79.03;94496.72;5052307;28;20225;-82
2022/06/21 03:20:34;;;;;;;18.08;8.25;;;;;;;16.99;78.64;94510.63;5052988;28;20179;-82
2022/06/21 03:23:01;;;;;;;18.27;9.70;;;;;;;16.91;77.80;94480.00;5052775;28;20163;-82
2022/06/21 03:25:48;;;;;;;13.85;8.35;;;;;;;17.00;78.37;94501.59;5052391;28;20653;-81
2022/06/21 03:28:39;;;;;;;13.43;7.10;;;;;;;17.10;77.59;94506.16;5055103;28;20688;-82
2022/06/21 03:31:13;;;;;;;8.13;6.35;;;;;;;17.13;77.38;94506.41;5072026;28;20612;-82
2022/06/21 03:33:52;;;;;;;9.85;6.57;;;;;;;16.94;78.06;94466.19;5066339;28;20180;-83
2022/06/21 03:36:22;;;;;;;9.70;6.35;;;;;;;17.18;77.69;94487.03;5070335;28;20714;-83
2022/06/21 03:38:53;;;;;;;11.98;5.93;;;;;;;17.46;77.85;94513.22;5071910;28;20219;-79
2022/06/21 03:44:31;;;;;;;16.13;6.50;;;;;;;17.75;76.99;94508.22;5070921;28;20239;-79
2022/06/21 03:47:08;;;;;;;12.02;5.35;;;;;;;17.84;76.05;94511.97;5069735;28;20175;-79
2022/06/21 03:50:00;;;;;;;13.35;5.60;;;;;;;17.96;75.89;94517.06;5063148;28;20225;-79
2022/06/21 03:52:43;;;;;;;20.40;5.57;;;;;;;18.16;74.90;94525.09;5065186;28;20174;-79
2022/06/21 03:55:14;;;;;;;8.18;4.13;;;;;;;18.28;73.16;94527.47;5067284;28;20747;-79
2022/06/21 03:57:47;;;;;;;9.82;4.18;;;;;;;18.24;72.79;94511.22;5062825;28;20644;-80
2022/06/21 04:00:14;;;;;;;5.65;4.18;;;;;;;18.47;72.16;94532.00;5063470;28;20182;-78
2022/06/21 04:02:51;;;;;;;8.68;4.43;;;;;;;18.56;72.15;94528.81;5062826;28;20174;-78
2022/06/21 04:05:26;;;;;;;5.00;3.67;;;;;;;18.70;71.78;94521.88;5061927;28;20166;-78
2022/06/21 04:07:59;;;;;;;6.10;3.75;;;;;;;18.89;71.35;94519.44;5070991;28;20170;-78
2022/06/21 04:10:41;;;;;;;10.15;4.03;;;;;;;19.09;70.11;94509.50;5071678;28;20186;-78
2022/06/21 04:13:36;;;;;;;6.53;3.95;;;;;;;19.27;68.99;94513.47;5065586;28;20258;-78
2022/06/21 04:16:14;;;;;;;5.18;3.65;;;;;;;19.38;68.37;94520.34;5071314;28;20170;-78
2022/06/21 04:18:59;;;;;;;6.90;4.70;;;;;;;19.52;68.11;94515.25;5070169;28;20218;-78
2022/06/21 04:21:33;;;;;;;7.25;3.95;;;;;;;19.64;68.67;94506.88;5071085;28;20170;-78
2022/06/21 04:24:04;;;;;;;10.50;4.70;;;;;;;19.85;67.77;94521.75;5069657;28;20178;-78
2022/06/21 04:26:52;;;;;;;8.00;4.40;;;;;;;19.76;67.89;94486.00;5070290;28;20170;-78
2022/06/21 04:29:31;;;;;;;9.00;4.45;;;;;;;20.08;67.04;94507.69;5071702;28;20186;-78
2022/06/21 04:32:16;;;;;;;8.85;4.30;;;;;;;20.31;65.84;94504.31;5064970;28;20555;-78
2022/06/21 04:34:46;;;;;;;6.53;4.32;;;;;;;20.46;65.47;94491.91;5071684;28;20186;-78
2022/06/21 04:37:24;;;;;;;7.88;4.88;;;;;;;20.62;63.96;94478.13;5071036;28;20186;-78
2022/06/21 04:40:18;;;;;;;15.50;5.50;;;;;;;20.86;62.63;94496.88;5071591;28;20673;-78
2022/06/21 04:43:00;;;;;;;10.10;4.97;;;;;;;20.97;63.16;94486.84;5071644;28;20213;-78
2022/06/21 04:45:34;;;;;;;19.48;6.07;;;;;;;21.27;61.85;94499.94;5070499;28;20182;-78
2022/06/21 04:48:16;;;;;;;12.60;4.95;;;;;;;21.50;62.03;94505.53;5063383;28;20601;-78
2022/06/21 04:50:47;;;;;;;12.40;5.07;;;;;;;21.57;61.58;94501.44;5071429;28;20766;-78
2022/06/21 04:53:38;;;;;;;9.77;5.28;;;;;;;21.83;61.01;94509.91;5071582;28;20653;-78
2022/06/21 04:56:10;;;;;;;11.85;5.53;;;;;;;22.04;61.01;94515.81;5063357;28;20250;-78
2022/06/21 04:58:36;;;;;;;12.88;5.15;;;;;;;22.21;60.05;94521.47;5058804;28;20175;-78
2022/06/21 05:01:29;;;;;;;6.93;4.65;;;;;;;22.51;59.91;94530.91;5065549;28;20657;-78
2022/06/21 05:03:50;;;;;;;7.78;4.65;;;;;;;22.76;59.32;94527.03;5053900;28;20198;-78
2022/06/21 05:06:15;;;;;;;10.65;3.90;;;;;;;23.09;57.77;94542.00;5070470;28;20166;-78
2022/06/21 05:08:43;;;;;;;8.70;4.43;;;;;;;23.43;56.10;94535.50;5071186;28;20222;-78
2022/06/21 05:11:12;;;;;;;4.70;4.10;;;;;;;23.69;55.02;94537.41;5070682;28;20178;-78
2022/06/21 05:13:42;;;;;;;9.70;3.88;;;;;;;24.06;53.88;94544.38;5071667;28;20186;-80
2022/06/21 05:16:31;;;;;;;8.48;3.72;;;;;;;24.46;53.91;94551.88;5071263;28;20630;-80
2022/06/21 05:19:02;;;;;;;5.40;3.50;;;;;;;24.78;51.30;94548.94;5074467;28;20324;-80
2022/06/21 05:21:36;;;;;;;8.45;4.10;;;;;;;24.95;49.02;94545.56;5074495;28;20182;-80
2022/06/21 05:24:03;;;;;;;6.32;3.85;;;;;;;25.07;49.09;94535.03;5074230;28;20201;-80
2022/06/21 05:26:47;;;;;;;4.75;3.38;;;;;;;25.44;48.50;94522.97;5074710;28;20184;-80
2022/06/21 05:29:58;;;;;;;10.48;5.30;;;;;;;26.19;47.17;94546.19;5074220;28;20178;-81
2022/06/21 05:32:38;;;;;;;8.18;5.93;;;;;;;26.61;47.38;94534.63;5041822;28;20217;-80
2022/06/21 05:35:27;;;;;;;6.20;4.70;;;;;;;26.91;45.49;94538.25;5056566;28;20177;-80
2022/06/21 05:38:00;;;;;;;9.70;4.40;;;;;;;27.27;46.13;94535.13;5075062;28;20239;-80
2022/06/21 05:40:46;;;;;;;11.98;5.22;;;;;;;27.52;44.18;94538.84;5067307;28;20539;-80
2022/06/21 05:43:20;;;;;;;7.75;4.13;;;;;;;27.70;43.83;94532.25;5059615;28;20562;-80
2022/06/21 05:46:00;;;;;;;20.55;9.30;;;;;;;28.12;43.88;94530.41;5065069;28;20186;-79
2022/06/21 05:48:30;;;;;;;7.35;4.18;;;;;;;28.44;44.37;94537.06;5072907;28;20170;-77
2022/06/21 05:50:56;;;;;;;13.48;7.72;;;;;;;28.81;41.83;94524.47;5073581;28;20183;-77
2022/06/21 05:53:34;;;;;;;9.15;4.72;;;;;;;28.82;42.70;94528.78;5066413;28;20200;-80
2022/06/21 05:56:10;;;;;;;9.93;5.80;;;;;;;28.20;41.94;94501.72;5070664;28;20170;-80
2022/06/21 05:58:42;;;;;;;5.07;4.00;;;;;;;28.16;44.02;94519.75;5056514;28;20235;-80
2022/06/21 06:01:21;;;;;;;9.77;4.00;;;;;;;27.90;43.26;94490.13;5070629;28;20196;-80
2022/06/21 06:04:09;;;;;;;9.98;4.40;;;;;;;27.95;44.35;94522.41;5073739;28;20193;-80
2022/06/21 06:06:36;;;;;;;9.52;4.85;;;;;;;27.86;43.60;94501.91;5048179;28;20719;-80
2022/06/21 06:09:27;;;;;;;12.25;6.38;;;;;;;27.95;43.91;94519.69;5073424;28;20190;-80
2022/06/21 06:12:08;;;;;;;6.80;4.10;;;;;;;28.09;46.23;94522.97;5051206;28;20202;-80
2022/06/21 06:15:09;;;;;;;8.52;3.85;;;;;;;28.40;44.35;94525.28;5073699;28;20176;-80
2022/06/21 06:17:45;;;;;;;6.47;4.20;;;;;;;28.36;43.96;94518.97;5053461;28;20218;-80
2022/06/21 06:20:16;;;;;;;13.65;4.40;;;;;;;28.54;46.51;94535.88;5073727;28;20601;-80
2022/06/21 06:22:46;;;;;;;9.30;4.60;;;;;;;28.64;45.13;94535.44;5073159;28;20274;-80
2022/06/21 06:25:44;;;;;;;8.45;4.30;;;;;;;28.78;44.27;94536.00;5073368;28;20170;-80
2022/06/21 06:28:27;;;;;;;8.50;4.35;;;;;;;28.88;43.62;94537.50;5035074;28;20213;-80
2022/06/21 06:30:56;;;;;;;7.03;4.70;;;;;;;28.82;44.05;94539.63;5070489;28;20193;-79
2022/06/21 06:33:44;;;;;;;6.45;4.43;;;;;;;28.85;45.15;94541.66;5064802;28;20174;-79
2022/06/21 06:36:17;;;;;;;9.50;4.38;;;;;;;28.76;44.69;94524.69;5073499;28;20185;-79
2022/06/21 06:38:43;;;;;;;6.55;4.60;;;;;;;28.96;43.88;94544.75;5073330;28;20202;-79
2022/06/21 06:41:31;;;;;;;9.73;5.93;;;;;;;28.66;42.21;94535.13;5073462;28;20232;-79
2022/06/21 06:44:01;;;;;;;7.18;4.03;;;;;;;28.65;43.71;94539.75;5073301;28;20189;-79
2022/06/21 06:46:36;;;;;;;9.35;4.13;;;;;;;28.67;44.80;94534.78;5073464;28;20303;-79
2022/06/21 06:49:20;;;;;;;8.32;3.75;;;;;;;28.85;44.57;94527.31;5073057;28;20209;-79
2022/06/21 06:51:51;;;;;;;5.32;3.88;;;;;;;29.06;46.28;94527.28;5072775;28;20178;-79
2022/06/21 06:54:30;;;;;;;6.40;3.80;;;;;;;29.11;46.36;94494.50;5073319;28;20638;-79
2022/06/21 06:57:11;;;;;;;5.90;3.95;;;;;;;29.55;45.12;94528.97;5078238;28;20188;-79
2022/06/21 06:59:38;;;;;;;14.13;6.80;;;;;;;29.79;45.27;94506.44;5076626;28;20174;-79
2022/06/21 07:02:16;;;;;;;7.38;4.47;;;;;;;30.12;45.68;94516.38;5075485;28;20244;-79
2022/06/21 07:04:47;;;;;;;8.15;3.50;;;;;;;30.12;45.95;94498.16;5061806;28;20550;-79
2022/06/21 07:07:24;;;;;;;8.43;3.97;;;;;;;30.42;46.84;94509.53;5066347;28;20632;-81
2022/06/21 07:09:57;;;;;;;5.60;3.17;;;;;;;30.74;45.86;94508.53;5068738;28;20217;-79
2022/06/21 07:12:27;;;;;;;4.82;3.25;;;;;;;30.99;44.67;94492.06;5070553;28;20186;-79
2022/06/21 07:14:54;;;;;;;6.00;4.00;;;;;;;31.18;45.92;94483.28;5073646;28;20174;-80
2022/06/21 07:17:36;;;;;;;5.32;3.60;;;;;;;31.40;43.37;94497.06;5076051;28;20185;-79
2022/06/21 07:20:02;;;;;;;10.45;3.95;;;;;;;31.60;44.87;94492.47;5083812;28;20194;-80
2022/06/21 07:22:33;;;;;;;4.50;2.97;;;;;;;31.97;42.68;94503.09;5077461;28;20240;-79
2022/06/21 07:24:58;;;;;;;4.80;3.10;;;;;;;32.11;44.09;94504.19;5072399;28;20166;-80
2022/06/21 07:27:26;;;;;;;7.45;4.72;;;;;;;32.38;42.63;94504.41;5071972;28;20173;-78
2022/06/21 07:30:03;;;;;;;9.05;3.63;;;;;;;32.46;41.57;94508.84;5071825;28;20718;-79
2022/06/21 07:32:46;;;;;;;6.45;3.10;;;;;;;32.12;40.01;94513.16;5071946;28;20162;-78
2022/06/21 07:35:18;;;;;;;3.67;2.80;;;;;;;31.87;38.64;94488.09;5071550;28;20549;-79
2022/06/21 07:37:55;;;;;;;4.50;2.78;;;;;;;31.85;40.61;94518.41;5071970;28;20170;-78
2022/06/21 07:40:39;;;;;;;5.45;3.53;;;;;;;32.00;39.36;94518.75;5070249;28;20676;-78
2022/06/21 07:43:11;;;;;;;6.00;3.03;;;;;;;32.09;40.50;94517.38;5053633;28;20178;-79
2022/06/21 07:45:36;;;;;;;13.77;3.72;;;;;;;32.34;39.21;94520.69;5071257;28;20166;-77
2022/06/21 07:48:11;;;;;;;6.43;3.25;;;;;;;32.45;40.17;94518.19;5071206;28;20177;-78
2022/06/21 07:50:50;;;;;;;11.80;3.90;;;;;;;32.94;40.45;94532.06;5071134;28;20224;-78
2022/06/21 07:53:24;;;;;;;15.65;3.28;;;;;;;32.81;38.85;94512.31;5070477;28;20247;-77
2022/06/21 07:56:02;;;;;;;11.57;3.10;;;;;;;32.58;38.71;94544.16;5076124;28;20184;-79
2022/06/21 07:58:38;;;;;;;78.78;10.18;;;;;;;31.80;38.89;94536.94;5063121;28;20181;-78
2022/06/21 08:07:13;;;;;;;7.97;3.10;;;;;;;31.38;43.27;94539.38;5068740;28;20185;-79
2022/06/21 08:09:42;;;;;;;3.50;3.20;;;;;;;31.58;43.14;94551.13;5069428;28;20213;-80
2022/06/21 08:12:11;;;;;;;4.05;3.65;;;;;;;31.88;41.01;94551.53;5071755;28;20253;-79
2022/06/21 08:14:36;;;;;;;8.50;3.90;;;;;;;31.71;41.79;94525.44;5061390;28;20904;-78
2022/06/21 08:17:08;;;;;;;7.72;3.92;;;;;;;31.93;40.10;94559.41;5073357;28;20170;-79
2022/06/21 08:19:36;;;;;;;8.63;4.20;;;;;;;32.02;41.47;94560.81;5069975;28;20218;-79
2022/06/21 08:22:09;;;;;;;11.85;4.35;;;;;;;32.18;41.86;94566.25;5068166;28;20230;-79
2022/06/21 08:24:50;;;;;;;7.25;3.83;;;;;;;32.24;40.74;94556.69;5072578;28;20166;-79
2022/06/21 08:27:37;;;;;;;9.38;3.72;;;;;;;32.13;41.06;94563.78;5073446;28;20176;-79
2022/06/21 08:30:10;;;;;;;6.85;4.22;;;;;;;32.45;42.98;94565.31;5075056;28;20191;-80
2022/06/21 08:32:47;;;;;;;19.45;6.13;;;;;;;32.12;41.01;94562.19;5056232;28;20558;-79
2022/06/21 08:35:34;;;;;;;12.88;4.88;;;;;;;31.97;42.45;94560.28;5078714;28;20558;-78
2022/06/21 08:38:09;;;;;;;10.20;5.10;;;;;;;32.13;42.90;94566.50;5071310;28;20209;-79
2022/06/21 08:41:51;;;;;;;10.00;4.00;;;;;;;32.16;43.28;94571.28;5071785;28;20219;-80
2022/06/21 08:44:13;;;;;;;7.78;4.22;;;;;;;32.37;42.76;94560.84;5065122;28;20214;-79
2022/06/21 08:46:57;;;;;;;12.13;5.00;;;;;;;32.43;42.39;94567.63;5071290;28;20184;-80
2022/06/21 08:49:44;;;;;;;8.38;4.35;;;;;;;32.30;40.32;94565.34;5071354;28;20180;-80
2022/06/21 08:52:30;;;;;;;8.63;5.50;;;;;;;32.11;41.82;94563.34;5074468;28;20209;-80
2022/06/21 08:55:07;;;;;;;15.15;5.70;;;;;;;31.81;43.19;94561.09;5075432;28;20178;-79
2022/06/21 08:57:44;;;;;;;8.48;5.18;;;;;;;31.61;44.17;94564.84;5075327;28;20166;-80
2022/06/21 09:00:24;;;;;;;11.60;5.05;;;;;;;31.76;44.52;94552.41;5075204;28;20661;-80
2022/06/21 09:03:23;;;;;;;9.63;5.47;;;;;;;31.94;45.65;94550.09;5077615;28;20260;-80
2022/06/21 09:06:15;;;;;;;17.27;6.00;;;;;;;31.91;44.83;94545.38;5074862;28;20630;-80
2022/06/21 09:09:09;;;;;;;10.88;5.45;;;;;;;31.71;43.99;94545.28;5074863;28;20209;-79
2022/06/21 09:11:48;;;;;;;11.90;6.18;;;;;;;31.42;44.17;94532.09;5075192;28;20236;-80
2022/06/21 09:14:35;;;;;;;13.93;5.93;;;;;;;31.31;45.01;94536.47;5058767;28;20567;-79
2022/06/21 09:17:18;;;;;;;11.10;4.80;;;;;;;31.15;46.54;94538.38;5074381;28;20181;-78
2022/06/21 09:20:21;;;;;;;18.30;5.43;;;;;;;31.06;45.89;94528.41;5073004;28;20663;-78
2022/06/21 09:23:06;;;;;;;8.05;5.10;;;;;;;30.88;48.02;94523.63;5070421;28;20209;-79
2022/06/21 09:25:35;;;;;;;10.30;5.40;;;;;;;30.75;46.90;94523.69;5068603;28;20178;-79
2022/06/21 09:28:14;;;;;;;8.93;4.50;;;;;;;30.70;46.75;94523.16;5073283;28;20182;-79
2022/06/21 09:30:45;;;;;;;10.02;5.07;;;;;;;30.75;48.20;94528.34;5074726;28;20731;-79
2022/06/21 09:33:15;;;;;;;10.45;4.82;;;;;;;30.71;47.95;94500.25;5074662;28;20231;-79
2022/06/21 09:36:06;;;;;;;13.60;6.22;;;;;;;30.94;48.25;94523.06;5074196;28;20404;-79
2022/06/21 09:38:54;;;;;;;8.15;5.32;;;;;;;30.95;48.57;94511.03;5057881;28;20178;-79
2022/06/21 09:41:52;;;;;;;6.28;5.20;;;;;;;31.01;48.20;94515.06;5052652;28;20174;-79
2022/06/21 09:44:42;;;;;;;11.27;5.13;;;;;;;31.05;48.59;94515.94;5066893;28;20202;-79
2022/06/21 09:47:37;;;;;;;12.90;5.45;;;;;;;30.98;48.57;94528.56;5081236;28;20174;-79
2022/06/21 09:50:37;;;;;;;8.35;5.72;;;;;;;31.06;48.90;94520.25;5060458;28;20194;-80
2022/06/21 09:53:32;;;;;;;13.07;5.72;;;;;;;31.10;48.02;94506.78;5072762;28;20193;-80
2022/06/21 09:56:26;;;;;;;8.98;5.63;;;;;;;31.15;47.55;94511.97;5053064;28;20175;-79
2022/06/21 09:58:59;;;;;;;10.52;5.30;;;;;;;31.16;48.76;94504.59;5026737;28;20190;-79
2022/06/21 10:02:05;;;;;;;13.57;5.70;;;;;;;31.01;48.76;94501.47;5070184;28;20174;-79
2022/06/21 10:04:54;;;;;;;11.13;6.97;;;;;;;30.92;48.40;94514.44;5070933;28;20248;-79
2022/06/21 10:07:33;;;;;;;12.27;7.35;;;;;;;30.92;47.77;94510.94;5073603;28;20259;-81
2022/06/21 10:09:58;;;;;;;14.73;5.80;;;;;;;30.97;46.78;94497.84;5054360;28;20238;-80
2022/06/21 10:12:54;;;;;;;7.50;4.80;;;;;;;30.90;47.18;94486.81;5071673;28;20255;-81
2022/06/21 10:15:33;;;;;;;11.98;6.13;;;;;;;30.82;48.20;94495.13;5068214;28;20175;-80
2022/06/21 10:18:18;;;;;;;13.20;5.47;;;;;;;30.74;47.06;94485.97;5063216;28;20218;-80
2022/06/21 10:21:08;;;;;;;12.30;5.15;;;;;;;30.61;46.28;94498.06;5063993;28;20174;-80
2022/06/21 10:23:43;;;;;;;11.45;5.80;;;;;;;30.52;49.48;94500.13;5070821;28;20644;-81
2022/06/21 10:26:26;;;;;;;11.02;5.20;;;;;;;30.53;48.07;94493.56;5068832;28;20551;-81
2022/06/21 10:29:22;;;;;;;8.38;5.38;;;;;;;30.52;48.36;94500.13;5071438;28;20174;-80
2022/06/21 10:31:57;;;;;;;9.98;5.18;;;;;;;30.13;46.73;94480.75;5071335;28;20183;-80
2022/06/21 10:34:57;;;;;;;7.32;4.57;;;;;;;30.11;48.90;94488.44;5063504;28;20653;-80
2022/06/21 10:38:04;;;;;;;10.32;5.05;;;;;;;30.12;48.20;94492.72;5063617;28;20181;-81
2022/06/21 10:40:47;;;;;;;12.38;4.85;;;;;;;30.12;49.09;94498.16;5071192;28;20166;-81
2022/06/21 10:43:38;;;;;;;7.28;4.93;;;;;;;30.01;49.22;94502.50;5071202;28;20257;-80
2022/06/21 10:46:10;;;;;;;8.35;4.40;;;;;;;29.95;52.62;94477.50;5053196;28;20249;-80
2022/06/21 10:48:53;;;;;;;10.63;4.90;;;;;;;30.15;49.78;94502.91;5071386;28;20654;-81
2022/06/21 10:51:36;;;;;;;9.65;4.90;;;;;;;30.19;49.19;94492.16;5066401;28;20175;-81
2022/06/21 10:54:42;;;;;;;9.18;5.30;;;;;;;30.16;48.89;94503.72;5067715;28;20236;-81
2022/06/21 10:57:29;;;;;;;11.48;5.65;;;;;;;30.21;49.88;94503.47;5032204;28;20197;-81
2022/06/21 11:03:26;;;;;;;11.25;4.97;;;;;;;30.44;49.83;94509.97;5061759;28;20248;-81
2022/06/21 11:06:00;;;;;;;7.22;5.30;;;;;;;30.60;50.29;94499.97;5070106;28;20182;-80
2022/06/21 11:08:52;;;;;;;12.48;5.38;;;;;;;30.79;49.35;94514.88;5070479;28;20181;-80
2022/06/21 11:11:39;;;;;;;11.65;6.20;;;;;;;30.79;47.87;94504.75;5055493;28;20194;-80
2022/06/21 11:14:16;;;;;;;7.05;4.72;;;;;;;30.81;50.00;94501.69;5066621;28;20196;-81
2022/06/21 11:16:51;;;;;;;7.03;5.03;;;;;;;30.75;50.81;94495.72;5052567;28;20667;-80
2022/06/21 11:19:38;;;;;;;7.55;5.40;;;;;;;30.72;49.12;94501.84;5055731;28;20207;-81
2022/06/21 11:22:20;;;;;;;10.60;5.07;;;;;;;30.77;51.95;94503.53;5050617;28;20666;-81
2022/06/21 11:25:06;;;;;;;8.10;5.45;;;;;;;30.74;49.75;94494.94;5064716;28;20231;-80
2022/06/21 11:27:45;;;;;;;6.50;5.45;;;;;;;30.66;49.43;94481.50;5070942;28;20244;-80
2022/06/21 11:30:41;;;;;;;6.80;5.15;;;;;;;30.85;48.27;94503.38;5070417;28;20289;-81
2022/06/21 11:33:25;;;;;;;10.20;5.20;;;;;;;30.89;50.59;94498.81;5070766;28;20205;-81
2022/06/21 11:36:19;;;;;;;8.85;5.75;;;;;;;30.96;47.85;94501.72;5070879;28;20174;-81
2022/06/21 11:38:57;;;;;;;11.32;6.22;;;;;;;31.05;49.46;94505.06;5016143;28;20614;-81
2022/06/21 11:44:48;;;;;;;10.27;5.38;;;;;;;31.04;49.47;94494.56;5070404;28;20308;-81
2022/06/21 11:47:19;;;;;;;7.38;5.57;;;;;;;30.97;48.38;94486.97;5039167;28;22591;-81
2022/06/21 11:49:54;;;;;;;6.47;5.40;;;;;;;31.14;48.80;94496.00;5070112;28;20693;-81
2022/06/21 11:52:28;;;;;;;7.82;4.78;;;;;;;31.18;48.45;94497.66;5070205;28;20211;-81
2022/06/21 11:55:02;;;;;;;8.15;4.97;;;;;;;31.20;48.03;94498.13;5070085;28;20188;-81
2022/06/21 11:57:41;;;;;;;7.60;5.30;;;;;;;31.13;46.96;94488.97;5070013;28;20185;-81
2022/06/21 12:00:19;;;;;;;11.85;6.25;;;;;;;31.03;48.30;94476.66;5070060;28;20618;-81
2022/06/21 12:02:53;;;;;;;11.73;5.72;;;;;;;30.92;47.41;94479.09;5070146;28;20681;-81
2022/06/21 12:05:40;;;;;;;20.92;6.85;;;;;;;31.00;48.28;94486.28;5069943;28;20181;-81
2022/06/21 12:08:15;;;;;;;9.88;5.60;;;;;;;30.99;48.14;94483.91;5070322;28;20174;-81
2022/06/21 12:11:02;;;;;;;14.57;6.50;;;;;;;30.94;48.53;94486.91;5069881;28;20685;-81
2022/06/21 12:13:40;;;;;;;7.45;5.47;;;;;;;30.89;47.90;94478.97;5069860;28;20178;-81
2022/06/21 12:16:42;;;;;;;7.63;5.35;;;;;;;30.93;48.04;94477.97;5069768;28;20173;-81
2022/06/21 12:19:15;;;;;;;7.90;5.57;;;;;;;30.98;48.76;94471.47;5069498;28;20221;-81
2022/06/21 12:21:52;;;;;;;11.57;5.50;;;;;;;30.97;47.75;94478.81;5069817;28;20185;-80
2022/06/21 12:24:22;;;;;;;8.38;5.50;;;;;;;30.88;49.11;94478.19;5069756;28;20189;-81
2022/06/21 12:26:47;;;;;;;11.25;6.13;;;;;;;30.64;47.48;94457.38;5072664;28;20647;-81
2022/06/21 12:29:19;;;;;;;9.88;5.85;;;;;;;30.66;47.78;94465.19;5073790;28;20201;-81
2022/06/21 12:31:49;;;;;;;6.60;5.82;;;;;;;30.55;48.26;94462.16;5073849;28;20641;-80
2022/06/21 12:34:17;;;;;;;7.63;5.22;;;;;;;30.42;48.35;94463.34;5056012;28;20257;-80